sensor_id;sensor_type;location;lat;lon;timestamp;P1;durP1;ratioP1;P2;durP2;ratioP2
1839;SDS011;920;48.944;9.148;2022-12-20T00:00:46;19.23;;;14.20;;
1839;SDS011;920;48.944;9.148;2022-12-20T00:03:13;17.73;;;13.60;;
1839;SDS011;920;48.944;9.148;2022-12-20T00:05:40;15.40;;;12.47;;
1839;SDS011;920;48.944;9.148;2022-12-20T00:08:10;16.47;;;12.40;;
1839;SDS011;920;48.944;9.148;2022-12-20T00:10:42;14.87;;;12.53;;
1839;SDS011;920;48.944;9.148;2022-12-20T00:13:10;16.23;;;12.57;;
1839;SDS011;920;48.944;9.148;2022-12-20T00:15:39;16.00;;;12.20;;
1839;SDS011;920;48.944;9.148;2022-12-20T00:18:06;17.10;;;12.03;;
1839;SDS011;920;48.944;9.148;2022-12-20T00:20:33;15.03;;;12.10;;
1839;SDS011;920;48.944;9.148;2022-12-20T00:23:02;15.07;;;11.57;;
1839;SDS011;920;48.944;9.148;2022-12-20T00:25:29;16.93;;;12.27;;
1839;SDS011;920;48.944;9.148;2022-12-20T00:27:59;18.37;;;12.63;;
1839;SDS011;920;48.944;9.148;2022-12-20T00:30:29;17.50;;;13.00;;
1839;SDS011;920;48.944;9.148;2022-12-20T00:32:55;18.80;;;12.00;;
1839;SDS011;920;48.944;9.148;2022-12-20T00:35:22;18.83;;;13.03;;
1839;SDS011;920;48.944;9.148;2022-12-20T00:37:50;16.07;;;11.63;;
1839;SDS011;920;48.944;9.148;2022-12-20T00:40:22;14.97;;;11.20;;
1839;SDS011;920;48.944;9.148;2022-12-20T00:42:49;15.40;;;11.70;;
1839;SDS011;920;48.944;9.148;2022-12-20T00:45:22;18.40;;;11.70;;
1839;SDS011;920;48.944;9.148;2022-12-20T00:47:49;16.43;;;11.80;;
1839;SDS011;920;48.944;9.148;2022-12-20T00:50:16;16.87;;;12.00;;
1839;SDS011;920;48.944;9.148;2022-12-20T00:52:44;17.07;;;11.90;;
1839;SDS011;920;48.944;9.148;2022-12-20T00:55:14;16.07;;;12.27;;
1839;SDS011;920;48.944;9.148;2022-12-20T00:57:41;13.07;;;10.83;;
1839;SDS011;920;48.944;9.148;2022-12-20T01:00:12;14.63;;;11.07;;
1839;SDS011;920;48.944;9.148;2022-12-20T01:02:40;15.47;;;11.60;;
1839;SDS011;920;48.944;9.148;2022-12-20T01:05:07;16.23;;;11.40;;
1839;SDS011;920;48.944;9.148;2022-12-20T01:07:34;20.60;;;11.10;;
1839;SDS011;920;48.944;9.148;2022-12-20T01:10:03;14.60;;;11.50;;
1839;SDS011;920;48.944;9.148;2022-12-20T01:12:30;13.40;;;10.27;;
1839;SDS011;920;48.944;9.148;2022-12-20T01:15:00;13.30;;;10.37;;
1839;SDS011;920;48.944;9.148;2022-12-20T01:17:26;15.00;;;11.30;;
1839;SDS011;920;48.944;9.148;2022-12-20T01:19:58;13.73;;;10.57;;
1839;SDS011;920;48.944;9.148;2022-12-20T01:22:24;15.70;;;11.17;;
1839;SDS011;920;48.944;9.148;2022-12-20T01:24:53;13.10;;;9.70;;
1839;SDS011;920;48.944;9.148;2022-12-20T01:27:25;11.30;;;9.57;;
1839;SDS011;920;48.944;9.148;2022-12-20T01:29:53;13.30;;;9.90;;
1839;SDS011;920;48.944;9.148;2022-12-20T01:32:21;15.03;;;11.67;;
1839;SDS011;920;48.944;9.148;2022-12-20T01:34:48;14.13;;;10.53;;
1839;SDS011;920;48.944;9.148;2022-12-20T01:37:16;14.67;;;11.10;;
1839;SDS011;920;48.944;9.148;2022-12-20T01:39:46;14.10;;;11.20;;
1839;SDS011;920;48.944;9.148;2022-12-20T01:42:13;15.80;;;11.17;;
1839;SDS011;920;48.944;9.148;2022-12-20T01:44:50;15.77;;;11.10;;
1839;SDS011;920;48.944;9.148;2022-12-20T01:47:19;17.47;;;12.57;;
1839;SDS011;920;48.944;9.148;2022-12-20T01:49:47;15.10;;;11.87;;
1839;SDS011;920;48.944;9.148;2022-12-20T01:52:18;14.87;;;11.47;;
1839;SDS011;920;48.944;9.148;2022-12-20T01:54:47;13.57;;;11.23;;
1839;SDS011;920;48.944;9.148;2022-12-20T01:57:16;12.60;;;10.70;;
1839;SDS011;920;48.944;9.148;2022-12-20T01:59:46;15.03;;;10.80;;
1839;SDS011;920;48.944;9.148;2022-12-20T02:02:17;16.20;;;11.00;;
1839;SDS011;920;48.944;9.148;2022-12-20T02:04:44;11.77;;;9.70;;
1839;SDS011;920;48.944;9.148;2022-12-20T02:07:10;15.17;;;11.10;;
1839;SDS011;920;48.944;9.148;2022-12-20T02:09:41;15.97;;;11.70;;
1839;SDS011;920;48.944;9.148;2022-12-20T02:12:09;15.03;;;11.80;;
1839;SDS011;920;48.944;9.148;2022-12-20T02:14:41;16.03;;;12.30;;
1839;SDS011;920;48.944;9.148;2022-12-20T02:17:18;16.13;;;10.97;;
1839;SDS011;920;48.944;9.148;2022-12-20T02:22:59;14.00;;;11.27;;
1839;SDS011;920;48.944;9.148;2022-12-20T02:25:47;14.53;;;10.80;;
1839;SDS011;920;48.944;9.148;2022-12-20T02:28:30;14.93;;;11.00;;
1839;SDS011;920;48.944;9.148;2022-12-20T02:31:09;13.73;;;9.87;;
1839;SDS011;920;48.944;9.148;2022-12-20T02:33:40;13.30;;;10.83;;
1839;SDS011;920;48.944;9.148;2022-12-20T02:36:07;12.57;;;9.70;;
1839;SDS011;920;48.944;9.148;2022-12-20T02:38:35;13.10;;;11.00;;
1839;SDS011;920;48.944;9.148;2022-12-20T02:41:04;12.70;;;10.60;;
1839;SDS011;920;48.944;9.148;2022-12-20T02:43:33;15.33;;;11.10;;
1839;SDS011;920;48.944;9.148;2022-12-20T02:46:20;17.33;;;10.73;;
1839;SDS011;920;48.944;9.148;2022-12-20T02:48:54;14.73;;;11.60;;
1839;SDS011;920;48.944;9.148;2022-12-20T02:51:25;14.10;;;10.67;;
1839;SDS011;920;48.944;9.148;2022-12-20T02:53:55;17.70;;;11.77;;
1839;SDS011;920;48.944;9.148;2022-12-20T02:56:29;16.20;;;12.53;;
1839;SDS011;920;48.944;9.148;2022-12-20T02:59:01;14.20;;;10.97;;
1839;SDS011;920;48.944;9.148;2022-12-20T03:01:35;16.73;;;12.00;;
1839;SDS011;920;48.944;9.148;2022-12-20T03:04:04;16.63;;;12.13;;
1839;SDS011;920;48.944;9.148;2022-12-20T03:06:32;14.47;;;11.33;;
1839;SDS011;920;48.944;9.148;2022-12-20T03:09:00;15.10;;;11.33;;
1839;SDS011;920;48.944;9.148;2022-12-20T03:11:28;13.57;;;10.67;;
1839;SDS011;920;48.944;9.148;2022-12-20T03:13:55;14.83;;;11.53;;
1839;SDS011;920;48.944;9.148;2022-12-20T03:16:21;15.20;;;12.27;;
1839;SDS011;920;48.944;9.148;2022-12-20T03:18:49;14.67;;;10.97;;
1839;SDS011;920;48.944;9.148;2022-12-20T03:21:16;13.83;;;10.93;;
1839;SDS011;920;48.944;9.148;2022-12-20T03:23:43;13.33;;;10.80;;
1839;SDS011;920;48.944;9.148;2022-12-20T03:26:10;12.93;;;10.17;;
1839;SDS011;920;48.944;9.148;2022-12-20T03:28:45;12.00;;;9.50;;
1839;SDS011;920;48.944;9.148;2022-12-20T03:31:12;16.00;;;11.70;;
1839;SDS011;920;48.944;9.148;2022-12-20T03:33:39;16.00;;;11.47;;
1839;SDS011;920;48.944;9.148;2022-12-20T03:36:09;13.60;;;10.67;;
1839;SDS011;920;48.944;9.148;2022-12-20T03:38:35;14.17;;;11.10;;
1839;SDS011;920;48.944;9.148;2022-12-20T03:41:05;12.70;;;11.10;;
1839;SDS011;920;48.944;9.148;2022-12-20T03:43:35;15.60;;;9.90;;
1839;SDS011;920;48.944;9.148;2022-12-20T03:46:01;14.13;;;11.23;;
1839;SDS011;920;48.944;9.148;2022-12-20T03:48:28;14.47;;;11.00;;
1839;SDS011;920;48.944;9.148;2022-12-20T03:50:58;14.10;;;11.40;;
1839;SDS011;920;48.944;9.148;2022-12-20T03:53:29;13.53;;;10.70;;
1839;SDS011;920;48.944;9.148;2022-12-20T03:55:55;13.50;;;10.83;;
1839;SDS011;920;48.944;9.148;2022-12-20T03:58:22;15.97;;;11.53;;
1839;SDS011;920;48.944;9.148;2022-12-20T04:00:49;18.50;;;12.77;;
1839;SDS011;920;48.944;9.148;2022-12-20T04:03:25;15.73;;;11.73;;
1839;SDS011;920;48.944;9.148;2022-12-20T04:05:55;15.70;;;11.80;;
1839;SDS011;920;48.944;9.148;2022-12-20T04:08:22;14.87;;;11.83;;
1839;SDS011;920;48.944;9.148;2022-12-20T04:10:50;15.03;;;11.30;;
1839;SDS011;920;48.944;9.148;2022-12-20T04:13:34;13.27;;;10.40;;
1839;SDS011;920;48.944;9.148;2022-12-20T04:16:00;13.90;;;11.07;;
1839;SDS011;920;48.944;9.148;2022-12-20T04:18:27;13.50;;;11.30;;
1839;SDS011;920;48.944;9.148;2022-12-20T04:20:54;16.00;;;10.97;;
1839;SDS011;920;48.944;9.148;2022-12-20T04:23:20;14.27;;;10.60;;
1839;SDS011;920;48.944;9.148;2022-12-20T04:25:47;14.40;;;10.37;;
1839;SDS011;920;48.944;9.148;2022-12-20T04:28:15;13.13;;;10.33;;
1839;SDS011;920;48.944;9.148;2022-12-20T04:30:42;13.07;;;10.00;;
1839;SDS011;920;48.944;9.148;2022-12-20T04:33:09;13.47;;;10.67;;
1839;SDS011;920;48.944;9.148;2022-12-20T04:35:35;12.90;;;9.83;;
1839;SDS011;920;48.944;9.148;2022-12-20T04:38:02;12.10;;;10.07;;
1839;SDS011;920;48.944;9.148;2022-12-20T04:40:29;11.83;;;9.90;;
1839;SDS011;920;48.944;9.148;2022-12-20T04:42:58;13.43;;;10.10;;
1839;SDS011;920;48.944;9.148;2022-12-20T04:45:28;13.00;;;10.30;;
1839;SDS011;920;48.944;9.148;2022-12-20T04:47:57;12.10;;;9.73;;
1839;SDS011;920;48.944;9.148;2022-12-20T04:50:24;13.47;;;9.40;;
1839;SDS011;920;48.944;9.148;2022-12-20T04:52:53;13.83;;;9.60;;
1839;SDS011;920;48.944;9.148;2022-12-20T04:55:37;11.47;;;9.47;;
1839;SDS011;920;48.944;9.148;2022-12-20T04:58:07;12.13;;;9.90;;
1839;SDS011;920;48.944;9.148;2022-12-20T05:00:37;14.50;;;11.20;;
1839;SDS011;920;48.944;9.148;2022-12-20T05:03:03;14.07;;;10.23;;
1839;SDS011;920;48.944;9.148;2022-12-20T05:05:30;13.00;;;9.23;;
1839;SDS011;920;48.944;9.148;2022-12-20T05:08:00;11.20;;;9.43;;
1839;SDS011;920;48.944;9.148;2022-12-20T05:10:26;10.80;;;9.10;;
1839;SDS011;920;48.944;9.148;2022-12-20T05:12:53;11.43;;;9.50;;
1839;SDS011;920;48.944;9.148;2022-12-20T05:15:20;12.13;;;9.50;;
1839;SDS011;920;48.944;9.148;2022-12-20T05:17:48;13.20;;;9.60;;
1839;SDS011;920;48.944;9.148;2022-12-20T05:20:14;12.73;;;9.50;;
1839;SDS011;920;48.944;9.148;2022-12-20T05:22:41;12.13;;;9.10;;
1839;SDS011;920;48.944;9.148;2022-12-20T05:25:26;10.97;;;9.30;;
1839;SDS011;920;48.944;9.148;2022-12-20T05:28:10;11.27;;;9.47;;
1839;SDS011;920;48.944;9.148;2022-12-20T05:30:37;11.43;;;8.67;;
1839;SDS011;920;48.944;9.148;2022-12-20T05:33:05;13.00;;;10.37;;
1839;SDS011;920;48.944;9.148;2022-12-20T05:35:34;13.33;;;10.40;;
1839;SDS011;920;48.944;9.148;2022-12-20T05:38:01;12.37;;;9.50;;
1839;SDS011;920;48.944;9.148;2022-12-20T05:40:30;12.47;;;9.77;;
1839;SDS011;920;48.944;9.148;2022-12-20T05:43:00;12.77;;;9.60;;
1839;SDS011;920;48.944;9.148;2022-12-20T05:45:30;11.37;;;8.50;;
1839;SDS011;920;48.944;9.148;2022-12-20T05:47:56;12.00;;;9.87;;
1839;SDS011;920;48.944;9.148;2022-12-20T05:50:26;12.70;;;9.43;;
1839;SDS011;920;48.944;9.148;2022-12-20T05:52:52;14.50;;;10.67;;
1839;SDS011;920;48.944;9.148;2022-12-20T05:55:19;12.53;;;10.53;;
1839;SDS011;920;48.944;9.148;2022-12-20T05:57:47;12.10;;;9.40;;
1839;SDS011;920;48.944;9.148;2022-12-20T06:00:17;14.03;;;9.70;;
1839;SDS011;920;48.944;9.148;2022-12-20T06:02:44;14.33;;;10.17;;
1839;SDS011;920;48.944;9.148;2022-12-20T06:05:15;13.63;;;10.57;;
1839;SDS011;920;48.944;9.148;2022-12-20T06:07:48;12.10;;;9.80;;
1839;SDS011;920;48.944;9.148;2022-12-20T06:10:15;14.50;;;10.23;;
1839;SDS011;920;48.944;9.148;2022-12-20T06:12:41;12.37;;;10.27;;
1839;SDS011;920;48.944;9.148;2022-12-20T06:15:11;11.87;;;9.10;;
1839;SDS011;920;48.944;9.148;2022-12-20T06:17:42;11.87;;;8.77;;
1839;SDS011;920;48.944;9.148;2022-12-20T06:20:09;12.93;;;9.83;;
1839;SDS011;920;48.944;9.148;2022-12-20T06:22:37;13.10;;;9.47;;
1839;SDS011;920;48.944;9.148;2022-12-20T06:25:06;14.53;;;10.07;;
1839;SDS011;920;48.944;9.148;2022-12-20T06:27:34;16.43;;;9.50;;
1839;SDS011;920;48.944;9.148;2022-12-20T06:30:01;12.93;;;9.57;;
1839;SDS011;920;48.944;9.148;2022-12-20T06:32:31;15.37;;;10.03;;
1839;SDS011;920;48.944;9.148;2022-12-20T06:34:57;13.73;;;10.33;;
1839;SDS011;920;48.944;9.148;2022-12-20T06:37:24;12.37;;;10.00;;
1839;SDS011;920;48.944;9.148;2022-12-20T06:39:51;12.33;;;9.40;;
1839;SDS011;920;48.944;9.148;2022-12-20T06:42:21;11.63;;;9.40;;
1839;SDS011;920;48.944;9.148;2022-12-20T06:44:51;14.13;;;10.27;;
1839;SDS011;920;48.944;9.148;2022-12-20T06:47:23;11.17;;;9.20;;
1839;SDS011;920;48.944;9.148;2022-12-20T06:49:49;14.57;;;9.23;;
1839;SDS011;920;48.944;9.148;2022-12-20T06:52:20;13.73;;;9.53;;
1839;SDS011;920;48.944;9.148;2022-12-20T06:54:47;13.50;;;9.40;;
1839;SDS011;920;48.944;9.148;2022-12-20T06:57:14;13.40;;;10.17;;
1839;SDS011;920;48.944;9.148;2022-12-20T06:59:44;11.77;;;9.50;;
1839;SDS011;920;48.944;9.148;2022-12-20T07:02:13;14.07;;;9.70;;
1839;SDS011;920;48.944;9.148;2022-12-20T07:04:43;13.87;;;11.10;;
1839;SDS011;920;48.944;9.148;2022-12-20T07:07:10;12.17;;;10.20;;
1839;SDS011;920;48.944;9.148;2022-12-20T07:09:37;13.73;;;10.07;;
1839;SDS011;920;48.944;9.148;2022-12-20T07:12:05;11.87;;;9.57;;
1839;SDS011;920;48.944;9.148;2022-12-20T07:14:37;10.63;;;8.73;;
1839;SDS011;920;48.944;9.148;2022-12-20T07:17:06;14.50;;;9.70;;
1839;SDS011;920;48.944;9.148;2022-12-20T07:19:33;10.83;;;8.80;;
1839;SDS011;920;48.944;9.148;2022-12-20T07:22:02;11.83;;;8.10;;
1839;SDS011;920;48.944;9.148;2022-12-20T07:24:29;10.57;;;8.10;;
1839;SDS011;920;48.944;9.148;2022-12-20T07:26:57;11.83;;;8.70;;
1839;SDS011;920;48.944;9.148;2022-12-20T07:29:24;10.60;;;8.53;;
1839;SDS011;920;48.944;9.148;2022-12-20T07:31:51;11.87;;;8.27;;
1839;SDS011;920;48.944;9.148;2022-12-20T07:34:23;13.50;;;8.03;;
1839;SDS011;920;48.944;9.148;2022-12-20T07:36:50;9.80;;;8.00;;
1839;SDS011;920;48.944;9.148;2022-12-20T07:39:20;10.83;;;8.50;;
1839;SDS011;920;48.944;9.148;2022-12-20T07:41:51;11.87;;;8.07;;
1839;SDS011;920;48.944;9.148;2022-12-20T07:44:18;11.20;;;7.63;;
1839;SDS011;920;48.944;9.148;2022-12-20T07:46:48;10.37;;;7.70;;
1839;SDS011;920;48.944;9.148;2022-12-20T07:49:16;11.00;;;8.60;;
1839;SDS011;920;48.944;9.148;2022-12-20T07:51:46;10.60;;;8.20;;
1839;SDS011;920;48.944;9.148;2022-12-20T07:54:16;10.07;;;8.03;;
1839;SDS011;920;48.944;9.148;2022-12-20T07:56:46;10.90;;;9.20;;
1839;SDS011;920;48.944;9.148;2022-12-20T07:59:15;10.97;;;9.20;;
1839;SDS011;920;48.944;9.148;2022-12-20T08:01:44;12.37;;;10.13;;
1839;SDS011;920;48.944;9.148;2022-12-20T08:04:15;11.57;;;9.83;;
1839;SDS011;920;48.944;9.148;2022-12-20T08:06:44;12.43;;;8.60;;
1839;SDS011;920;48.944;9.148;2022-12-20T08:09:11;10.40;;;8.30;;
1839;SDS011;920;48.944;9.148;2022-12-20T08:11:38;12.57;;;10.13;;
1839;SDS011;920;48.944;9.148;2022-12-20T08:14:06;11.30;;;9.50;;
1839;SDS011;920;48.944;9.148;2022-12-20T08:16:33;10.87;;;9.47;;
1839;SDS011;920;48.944;9.148;2022-12-20T08:19:00;12.20;;;9.53;;
1839;SDS011;920;48.944;9.148;2022-12-20T08:21:26;12.70;;;9.90;;
1839;SDS011;920;48.944;9.148;2022-12-20T08:23:55;13.80;;;10.00;;
1839;SDS011;920;48.944;9.148;2022-12-20T08:26:22;14.93;;;10.23;;
1839;SDS011;920;48.944;9.148;2022-12-20T08:28:49;11.30;;;9.23;;
1839;SDS011;920;48.944;9.148;2022-12-20T08:31:20;13.13;;;9.70;;
1839;SDS011;920;48.944;9.148;2022-12-20T08:33:47;10.37;;;9.27;;
1839;SDS011;920;48.944;9.148;2022-12-20T08:36:16;14.20;;;9.57;;
1839;SDS011;920;48.944;9.148;2022-12-20T08:38:43;12.47;;;9.20;;
1839;SDS011;920;48.944;9.148;2022-12-20T08:41:13;13.17;;;9.53;;
1839;SDS011;920;48.944;9.148;2022-12-20T08:43:42;11.10;;;9.00;;
1839;SDS011;920;48.944;9.148;2022-12-20T08:46:09;12.60;;;9.77;;
1839;SDS011;920;48.944;9.148;2022-12-20T08:48:37;11.60;;;9.03;;
1839;SDS011;920;48.944;9.148;2022-12-20T08:51:04;10.87;;;8.80;;
1839;SDS011;920;48.944;9.148;2022-12-20T08:53:33;10.53;;;8.40;;
1839;SDS011;920;48.944;9.148;2022-12-20T08:56:06;10.90;;;8.83;;
1839;SDS011;920;48.944;9.148;2022-12-20T08:58:39;11.80;;;9.10;;
1839;SDS011;920;48.944;9.148;2022-12-20T09:01:08;10.50;;;8.40;;
1839;SDS011;920;48.944;9.148;2022-12-20T09:03:39;12.93;;;9.00;;
1839;SDS011;920;48.944;9.148;2022-12-20T09:06:09;11.80;;;9.10;;
1839;SDS011;920;48.944;9.148;2022-12-20T09:08:37;11.13;;;8.73;;
1839;SDS011;920;48.944;9.148;2022-12-20T09:11:08;12.67;;;9.47;;
1839;SDS011;920;48.944;9.148;2022-12-20T09:13:36;10.37;;;8.43;;
1839;SDS011;920;48.944;9.148;2022-12-20T09:16:05;12.70;;;9.00;;
1839;SDS011;920;48.944;9.148;2022-12-20T09:18:35;11.47;;;8.67;;
1839;SDS011;920;48.944;9.148;2022-12-20T09:21:03;14.73;;;10.87;;
1839;SDS011;920;48.944;9.148;2022-12-20T09:23:31;13.00;;;8.90;;
1839;SDS011;920;48.944;9.148;2022-12-20T09:26:02;12.13;;;8.37;;
1839;SDS011;920;48.944;9.148;2022-12-20T09:28:30;9.00;;;7.37;;
1839;SDS011;920;48.944;9.148;2022-12-20T09:30:59;11.27;;;9.10;;
1839;SDS011;920;48.944;9.148;2022-12-20T09:33:28;14.00;;;9.53;;
1839;SDS011;920;48.944;9.148;2022-12-20T09:35:55;13.20;;;8.87;;
1839;SDS011;920;48.944;9.148;2022-12-20T09:38:22;11.80;;;8.87;;
1839;SDS011;920;48.944;9.148;2022-12-20T09:40:50;11.57;;;8.17;;
1839;SDS011;920;48.944;9.148;2022-12-20T09:43:22;9.40;;;7.63;;
1839;SDS011;920;48.944;9.148;2022-12-20T09:45:50;10.93;;;8.10;;
1839;SDS011;920;48.944;9.148;2022-12-20T09:48:20;10.27;;;7.57;;
1839;SDS011;920;48.944;9.148;2022-12-20T09:50:54;9.70;;;7.90;;
1839;SDS011;920;48.944;9.148;2022-12-20T09:53:27;12.17;;;7.93;;
1839;SDS011;920;48.944;9.148;2022-12-20T09:56:09;8.97;;;6.97;;
1839;SDS011;920;48.944;9.148;2022-12-20T09:58:47;11.00;;;7.80;;
1839;SDS011;920;48.944;9.148;2022-12-20T10:01:23;12.63;;;8.20;;
1839;SDS011;920;48.944;9.148;2022-12-20T10:03:52;8.93;;;7.27;;
1839;SDS011;920;48.944;9.148;2022-12-20T10:06:23;9.70;;;7.27;;
1839;SDS011;920;48.944;9.148;2022-12-20T10:08:58;9.97;;;7.30;;
1839;SDS011;920;48.944;9.148;2022-12-20T10:11:40;11.33;;;7.80;;
1839;SDS011;920;48.944;9.148;2022-12-20T10:14:23;9.53;;;7.30;;
1839;SDS011;920;48.944;9.148;2022-12-20T10:17:00;8.47;;;6.50;;
1839;SDS011;920;48.944;9.148;2022-12-20T10:19:38;9.70;;;7.60;;
1839;SDS011;920;48.944;9.148;2022-12-20T10:22:18;9.10;;;7.80;;
1839;SDS011;920;48.944;9.148;2022-12-20T10:24:50;9.80;;;8.13;;
1839;SDS011;920;48.944;9.148;2022-12-20T10:27:20;9.80;;;8.00;;
1839;SDS011;920;48.944;9.148;2022-12-20T10:29:49;12.27;;;8.10;;
1839;SDS011;920;48.944;9.148;2022-12-20T10:32:18;9.60;;;7.30;;
1839;SDS011;920;48.944;9.148;2022-12-20T10:34:49;10.00;;;7.13;;
1839;SDS011;920;48.944;9.148;2022-12-20T10:37:20;8.67;;;7.43;;
1839;SDS011;920;48.944;9.148;2022-12-20T10:39:48;9.57;;;6.93;;
1839;SDS011;920;48.944;9.148;2022-12-20T10:42:23;9.27;;;7.57;;
1839;SDS011;920;48.944;9.148;2022-12-20T10:44:53;8.40;;;7.00;;
1839;SDS011;920;48.944;9.148;2022-12-20T10:47:22;8.33;;;7.07;;
1839;SDS011;920;48.944;9.148;2022-12-20T10:50:13;8.17;;;6.60;;
1839;SDS011;920;48.944;9.148;2022-12-20T10:52:44;8.37;;;6.80;;
1839;SDS011;920;48.944;9.148;2022-12-20T10:58:01;9.07;;;7.20;;
1839;SDS011;920;48.944;9.148;2022-12-20T11:00:30;9.57;;;7.37;;
1839;SDS011;920;48.944;9.148;2022-12-20T11:03:09;9.37;;;7.70;;
1839;SDS011;920;48.944;9.148;2022-12-20T11:05:39;10.53;;;8.63;;
1839;SDS011;920;48.944;9.148;2022-12-20T11:08:11;15.17;;;8.80;;
1839;SDS011;920;48.944;9.148;2022-12-20T11:10:45;9.70;;;8.20;;
1839;SDS011;920;48.944;9.148;2022-12-20T11:13:19;9.73;;;8.17;;
1839;SDS011;920;48.944;9.148;2022-12-20T11:15:52;12.20;;;8.50;;
1839;SDS011;920;48.944;9.148;2022-12-20T11:18:27;9.80;;;8.77;;
1839;SDS011;920;48.944;9.148;2022-12-20T11:21:06;10.90;;;8.37;;
1839;SDS011;920;48.944;9.148;2022-12-20T11:23:44;8.77;;;7.67;;
1839;SDS011;920;48.944;9.148;2022-12-20T11:26:18;10.63;;;8.97;;
1839;SDS011;920;48.944;9.148;2022-12-20T11:29:02;9.43;;;8.27;;
1839;SDS011;920;48.944;9.148;2022-12-20T11:31:44;9.67;;;8.03;;
1839;SDS011;920;48.944;9.148;2022-12-20T11:34:18;10.60;;;7.90;;
1839;SDS011;920;48.944;9.148;2022-12-20T11:36:56;10.10;;;8.60;;
1839;SDS011;920;48.944;9.148;2022-12-20T11:39:33;9.13;;;7.63;;
1839;SDS011;920;48.944;9.148;2022-12-20T11:42:05;11.47;;;8.30;;
1839;SDS011;920;48.944;9.148;2022-12-20T11:44:44;10.63;;;7.57;;
1839;SDS011;920;48.944;9.148;2022-12-20T11:47:29;10.17;;;7.50;;
1839;SDS011;920;48.944;9.148;2022-12-20T11:50:13;9.80;;;7.60;;
1839;SDS011;920;48.944;9.148;2022-12-20T11:52:51;9.60;;;7.93;;
1839;SDS011;920;48.944;9.148;2022-12-20T11:55:23;10.53;;;7.77;;
1839;SDS011;920;48.944;9.148;2022-12-20T11:57:53;9.60;;;7.93;;
1839;SDS011;920;48.944;9.148;2022-12-20T12:00:32;10.70;;;8.00;;
1839;SDS011;920;48.944;9.148;2022-12-20T12:03:03;8.67;;;7.77;;
1839;SDS011;920;48.944;9.148;2022-12-20T12:05:42;10.33;;;7.57;;
1839;SDS011;920;48.944;9.148;2022-12-20T12:08:12;8.60;;;7.10;;
1839;SDS011;920;48.944;9.148;2022-12-20T12:10:44;8.73;;;6.73;;
1839;SDS011;920;48.944;9.148;2022-12-20T12:13:17;7.80;;;6.57;;
1839;SDS011;920;48.944;9.148;2022-12-20T12:15:51;8.70;;;6.60;;
1839;SDS011;920;48.944;9.148;2022-12-20T12:18:26;6.90;;;6.20;;
1839;SDS011;920;48.944;9.148;2022-12-20T12:20:58;10.77;;;7.87;;
1839;SDS011;920;48.944;9.148;2022-12-20T12:23:28;11.27;;;9.07;;
1839;SDS011;920;48.944;9.148;2022-12-20T12:26:01;10.20;;;8.27;;
1839;SDS011;920;48.944;9.148;2022-12-20T12:28:31;10.03;;;8.07;;
1839;SDS011;920;48.944;9.148;2022-12-20T12:30:58;10.87;;;7.90;;
1839;SDS011;920;48.944;9.148;2022-12-20T12:33:29;9.27;;;7.30;;
1839;SDS011;920;48.944;9.148;2022-12-20T12:36:07;9.57;;;7.70;;
1839;SDS011;920;48.944;9.148;2022-12-20T12:44:41;10.33;;;8.20;;
1839;SDS011;920;48.944;9.148;2022-12-20T12:47:15;8.87;;;7.13;;
1839;SDS011;920;48.944;9.148;2022-12-20T12:49:48;9.20;;;8.10;;
1839;SDS011;920;48.944;9.148;2022-12-20T12:52:36;10.27;;;8.63;;
1839;SDS011;920;48.944;9.148;2022-12-20T12:58:11;9.30;;;7.90;;
1839;SDS011;920;48.944;9.148;2022-12-20T13:00:57;8.03;;;7.10;;
1839;SDS011;920;48.944;9.148;2022-12-20T13:03:39;9.70;;;7.07;;
1839;SDS011;920;48.944;9.148;2022-12-20T13:09:18;8.30;;;7.10;;
1839;SDS011;920;48.944;9.148;2022-12-20T13:11:48;9.73;;;6.93;;
1839;SDS011;920;48.944;9.148;2022-12-20T13:20:17;9.17;;;7.77;;
1839;SDS011;920;48.944;9.148;2022-12-20T13:23:13;7.87;;;6.80;;
1839;SDS011;920;48.944;9.148;2022-12-20T13:25:43;8.20;;;7.03;;
1839;SDS011;920;48.944;9.148;2022-12-20T13:31:30;7.70;;;6.17;;
1839;SDS011;920;48.944;9.148;2022-12-20T13:34:00;8.27;;;7.47;;
1839;SDS011;920;48.944;9.148;2022-12-20T13:36:29;10.33;;;6.83;;
1839;SDS011;920;48.944;9.148;2022-12-20T13:42:13;10.07;;;7.80;;
1839;SDS011;920;48.944;9.148;2022-12-20T13:44:44;8.90;;;7.80;;
1839;SDS011;920;48.944;9.148;2022-12-20T13:47:28;9.77;;;7.40;;
1839;SDS011;920;48.944;9.148;2022-12-20T13:52:56;8.97;;;7.10;;
1839;SDS011;920;48.944;9.148;2022-12-20T13:55:31;10.60;;;7.27;;
1839;SDS011;920;48.944;9.148;2022-12-20T13:58:11;9.53;;;7.73;;
1839;SDS011;920;48.944;9.148;2022-12-20T14:00:39;11.30;;;7.03;;
1839;SDS011;920;48.944;9.148;2022-12-20T14:03:18;9.33;;;7.23;;
1839;SDS011;920;48.944;9.148;2022-12-20T14:05:48;10.10;;;7.80;;
1839;SDS011;920;48.944;9.148;2022-12-20T14:08:17;8.40;;;7.40;;
1839;SDS011;920;48.944;9.148;2022-12-20T14:10:50;8.20;;;7.13;;
1839;SDS011;920;48.944;9.148;2022-12-20T14:13:20;9.33;;;7.10;;
1839;SDS011;920;48.944;9.148;2022-12-20T14:15:48;8.57;;;7.50;;
1839;SDS011;920;48.944;9.148;2022-12-20T14:18:16;8.00;;;6.50;;
1839;SDS011;920;48.944;9.148;2022-12-20T14:20:44;9.00;;;7.23;;
1839;SDS011;920;48.944;9.148;2022-12-20T14:23:13;10.73;;;7.73;;
1839;SDS011;920;48.944;9.148;2022-12-20T14:25:43;8.60;;;6.53;;
1839;SDS011;920;48.944;9.148;2022-12-20T14:28:15;8.53;;;7.03;;
1839;SDS011;920;48.944;9.148;2022-12-20T14:30:48;9.23;;;7.47;;
1839;SDS011;920;48.944;9.148;2022-12-20T14:33:20;10.20;;;7.07;;
1839;SDS011;920;48.944;9.148;2022-12-20T14:35:56;9.77;;;6.90;;
1839;SDS011;920;48.944;9.148;2022-12-20T14:38:34;8.00;;;6.40;;
1839;SDS011;920;48.944;9.148;2022-12-20T14:41:01;9.27;;;7.30;;
1839;SDS011;920;48.944;9.148;2022-12-20T14:43:35;9.60;;;6.60;;
1839;SDS011;920;48.944;9.148;2022-12-20T14:46:16;8.03;;;6.90;;
1839;SDS011;920;48.944;9.148;2022-12-20T14:48:48;8.60;;;7.40;;
1839;SDS011;920;48.944;9.148;2022-12-20T14:51:30;10.67;;;7.20;;
1839;SDS011;920;48.944;9.148;2022-12-20T14:53:58;11.70;;;7.60;;
1839;SDS011;920;48.944;9.148;2022-12-20T14:56:28;9.60;;;7.27;;
1839;SDS011;920;48.944;9.148;2022-12-20T14:59:01;8.37;;;6.97;;
1839;SDS011;920;48.944;9.148;2022-12-20T15:01:30;8.63;;;7.50;;
1839;SDS011;920;48.944;9.148;2022-12-20T15:03:59;10.27;;;7.20;;
1839;SDS011;920;48.944;9.148;2022-12-20T15:06:33;9.57;;;8.30;;
1839;SDS011;920;48.944;9.148;2022-12-20T15:09:02;9.50;;;7.97;;
1839;SDS011;920;48.944;9.148;2022-12-20T15:11:29;9.40;;;7.80;;
1839;SDS011;920;48.944;9.148;2022-12-20T15:13:56;11.50;;;7.33;;
1839;SDS011;920;48.944;9.148;2022-12-20T15:16:24;11.03;;;7.37;;
1839;SDS011;920;48.944;9.148;2022-12-20T15:18:56;15.10;;;7.63;;
1839;SDS011;920;48.944;9.148;2022-12-20T15:21:27;9.00;;;7.47;;
1839;SDS011;920;48.944;9.148;2022-12-20T15:23:55;8.00;;;7.20;;
1839;SDS011;920;48.944;9.148;2022-12-20T15:26:24;8.97;;;6.90;;
1839;SDS011;920;48.944;9.148;2022-12-20T15:28:53;9.40;;;6.67;;
1839;SDS011;920;48.944;9.148;2022-12-20T15:31:22;8.70;;;6.60;;
1839;SDS011;920;48.944;9.148;2022-12-20T15:33:50;9.67;;;8.40;;
1839;SDS011;920;48.944;9.148;2022-12-20T15:36:19;9.80;;;7.83;;
1839;SDS011;920;48.944;9.148;2022-12-20T15:38:49;9.47;;;7.57;;
1839;SDS011;920;48.944;9.148;2022-12-20T15:41:18;10.30;;;7.70;;
1839;SDS011;920;48.944;9.148;2022-12-20T15:43:48;8.90;;;7.00;;
1839;SDS011;920;48.944;9.148;2022-12-20T15:46:21;8.27;;;6.60;;
1839;SDS011;920;48.944;9.148;2022-12-20T15:48:49;9.73;;;7.03;;
1839;SDS011;920;48.944;9.148;2022-12-20T15:51:20;12.00;;;8.23;;
1839;SDS011;920;48.944;9.148;2022-12-20T15:53:53;11.20;;;8.40;;
1839;SDS011;920;48.944;9.148;2022-12-20T15:56:20;11.03;;;7.60;;
1839;SDS011;920;48.944;9.148;2022-12-20T15:58:50;9.67;;;7.67;;
1839;SDS011;920;48.944;9.148;2022-12-20T16:01:18;9.57;;;7.67;;
1839;SDS011;920;48.944;9.148;2022-12-20T16:03:46;9.90;;;7.73;;
1839;SDS011;920;48.944;9.148;2022-12-20T16:06:15;10.30;;;8.30;;
1839;SDS011;920;48.944;9.148;2022-12-20T16:08:42;9.60;;;8.20;;